Time;durP1;ratioP1;P1;durP2;ratioP2;P2;SDS_P1;SDS_P2;PMS_P1;PMS_P2;Temp;Humidity;BMP_temperature;BMP_pressure;BME280_temperature;BME280_humidity;BME280_pressure;Samples;Min_cycle;Max_cycle;Signal;HPM_P1;HPM_P2
2024/04/11 00:01:39;;;;;;;8.10;5.80;;;;;;;9.07;60.65;100653.89;103479;1291;545413;-78
2024/04/11 00:05:15;;;;;;;8.20;6.20;;;;;;;9.00;60.81;100658.96;103313;1298;544689;-77
2024/04/11 00:08:54;;;;;;;8.20;6.00;;;;;;;8.94;60.89;100663.30;103135;1294;544797;-77
2024/04/11 00:12:31;;;;;;;12.30;6.20;;;;;;;8.88;61.13;100662.02;102947;1295;545663;-78
2024/04/11 00:16:09;;;;;;;9.10;6.10;;;;;;;8.83;61.09;100657.22;103235;1295;544961;-78
2024/04/11 00:19:46;;;;;;;7.60;5.70;;;;;;;8.80;61.37;100659.02;103022;1298;545247;-77
2024/04/11 00:23:23;;;;;;;9.70;6.00;;;;;;;8.78;61.46;100653.29;103148;1292;546153;-74
2024/04/11 00:27:02;;;;;;;8.20;6.10;;;;;;;8.75;61.63;100650.91;103064;1298;545022;-74
2024/04/11 00:30:39;;;;;;;7.10;6.00;;;;;;;8.71;61.55;100650.30;103209;1293;545450;-79
2024/04/11 00:34:23;;;;;;;10.70;6.20;;;;;;;8.66;61.68;100651.61;103263;1295;545190;-78
2024/04/11 00:37:55;;;;;;;10.50;6.40;;;;;;;8.66;61.82;100649.86;102987;1294;545433;-77
2024/04/11 00:41:32;;;;;;;9.10;7.20;;;;;;;8.63;61.91;100647.46;103059;1292;545874;-77
2024/04/11 00:45:10;;;;;;;10.70;7.10;;;;;;;8.60;62.05;100644.91;103578;1293;545126;-77
2024/04/11 00:48:48;;;;;;;8.70;6.80;;;;;;;8.55;62.15;100639.22;103002;1294;545167;-76
2024/04/11 00:52:25;;;;;;;11.90;7.30;;;;;;;8.53;62.41;100634.31;103285;1296;544931;-75
2024/04/11 00:56:04;;;;;;;9.10;6.80;;;;;;;8.53;62.33;100635.41;103151;1293;545409;-75
2024/04/11 00:59:41;;;;;;;7.80;6.30;;;;;;;8.50;62.52;100634.05;102958;1295;544981;-77
2024/04/11 01:03:19;;;;;;;9.40;6.50;;;;;;;8.47;62.63;100632.70;102971;1308;544704;-76
2024/04/11 01:07:06;;;;;;;10.10;7.20;;;;;;;8.43;62.59;100630.69;102978;1294;546536;-75
2024/04/11 01:10:37;;;;;;;10.70;7.00;;;;;;;8.36;62.56;100630.83;103367;1297;544789;-76
2024/04/11 01:14:09;;;;;;;8.40;7.20;;;;;;;8.30;62.86;100627.63;103288;1292;545115;-75
2024/04/11 01:17:51;;;;;;;9.70;7.50;;;;;;;8.27;62.90;100633.64;102973;1294;545134;-75
2024/04/11 01:21:29;;;;;;;9.30;6.90;;;;;;;8.20;62.96;100635.18;103752;1289;545982;-75
2024/04/11 01:25:05;;;;;;;10.10;6.90;;;;;;;8.13;63.11;100640.20;103271;1298;544737;-75
2024/04/11 01:28:46;;;;;;;9.20;7.10;;;;;;;8.07;63.08;100645.57;103035;1292;544997;-76
2024/04/11 01:32:25;;;;;;;10.60;7.10;;;;;;;8.02;63.35;100643.55;103193;1292;545513;-75
2024/04/11 01:36:00;;;;;;;9.60;6.80;;;;;;;7.96;63.21;100648.23;103431;1295;545574;-76
2024/04/11 01:39:42;;;;;;;9.90;7.00;;;;;;;7.87;63.31;100656.79;103477;1307;545240;-78
2024/04/11 01:43:19;;;;;;;11.00;7.10;;;;;;;7.81;63.54;100657.27;103114;1292;545137;-78
2024/04/11 01:46:59;;;;;;;9.40;7.60;;;;;;;7.74;63.56;100651.77;103547;1295;544958;-82
2024/04/11 01:50:39;;;;;;;13.30;7.80;;;;;;;7.68;63.54;100648.02;103410;1293;545549;-80
2024/04/11 01:54:13;;;;;;;12.40;7.70;;;;;;;7.63;63.74;100647.02;103160;1293;545185;-76
2024/04/11 01:57:50;;;;;;;12.30;7.80;;;;;;;7.57;63.76;100645.05;102994;1295;545057;-73
2024/04/11 02:01:34;;;;;;;10.10;7.60;;;;;;;7.51;64.06;100649.35;104706;1276;544977;-73
2024/04/11 02:05:06;;;;;;;33.10;9.90;;;;;;;7.52;64.17;100655.81;102947;1295;545020;-74
2024/04/11 02:08:44;;;;;;;28.40;9.80;;;;;;;7.49;64.18;100659.88;103205;1294;545037;-78
2024/04/11 02:12:19;;;;;;;15.90;8.30;;;;;;;7.45;64.23;100656.45;102942;1301;545048;-78
2024/04/11 02:16:01;;;;;;;23.90;8.60;;;;;;;7.41;64.41;100650.39;103015;1295;545495;-78
2024/04/11 02:19:43;;;;;;;22.70;9.10;;;;;;;7.38;64.42;100647.11;103358;1295;544800;-80
2024/04/11 02:23:16;;;;;;;13.60;8.10;;;;;;;7.35;64.45;100655.73;103065;1292;544852;-79
2024/04/11 02:26:54;;;;;;;10.80;7.70;;;;;;;7.32;64.64;100651.76;103100;1292;545484;-78
2024/04/11 02:30:32;;;;;;;12.40;8.20;;;;;;;7.29;64.56;100648.65;103501;1289;544846;-78
2024/04/11 02:34:12;;;;;;;14.10;9.00;;;;;;;7.27;64.68;100647.29;103069;1294;545000;-76
2024/04/11 02:37:45;;;;;;;13.50;8.10;;;;;;;7.25;64.83;100649.23;103105;1294;544901;-77
2024/04/11 02:41:28;;;;;;;10.50;7.60;;;;;;;7.25;65.08;100650.29;103042;1295;545195;-76
2024/04/11 02:45:08;;;;;;;13.10;8.20;;;;;;;7.26;65.07;100652.02;103023;1295;545015;-75
2024/04/11 02:48:46;;;;;;;11.20;7.70;;;;;;;7.29;65.35;100651.46;103014;1292;544958;-76
2024/04/11 02:52:20;;;;;;;9.90;7.40;;;;;;;7.30;65.46;100654.23;103278;1293;544981;-77
2024/04/11 02:56:00;;;;;;;11.80;8.30;;;;;;;7.33;65.59;100656.63;103424;1292;545094;-77
2024/04/11 02:59:36;;;;;;;13.70;8.90;;;;;;;7.35;65.70;100655.39;103113;1296;544775;-76
2024/04/11 03:03:13;;;;;;;10.60;8.50;;;;;;;7.36;65.81;100655.73;103205;1293;545230;-75
2024/04/11 03:06:51;;;;;;;12.50;9.00;;;;;;;7.34;66.01;100653.65;103279;1293;544705;-77
2024/04/11 03:10:31;;;;;;;11.90;8.60;;;;;;;7.34;65.88;100657.14;103186;1298;544996;-77
2024/04/11 03:14:06;;;;;;;12.50;7.90;;;;;;;7.33;65.93;100657.51;103079;1302;544849;-77
2024/04/11 03:17:51;;;;;;;10.20;7.40;;;;;;;7.34;66.06;100658.19;103036;1297;545708;-77
2024/04/11 03:21:24;;;;;;;10.60;8.10;;;;;;;7.33;66.11;100659.80;103268;1300;544674;-77
2024/04/11 03:25:07;;;;;;;16.90;8.70;;;;;;;7.26;66.06;100657.80;103378;1295;545266;-77
2024/04/11 03:28:44;;;;;;;14.20;8.60;;;;;;;7.22;66.07;100663.62;103025;1294;544689;-78
2024/04/11 03:32:24;;;;;;;14.00;9.30;;;;;;;7.20;66.22;100660.51;103607;1292;544811;-78
2024/04/11 03:36:00;;;;;;;12.50;9.20;;;;;;;7.17;66.27;100656.52;102968;1297;546013;-77
2024/04/11 03:39:43;;;;;;;11.20;8.50;;;;;;;7.14;66.41;100660.94;103292;1293;545021;-79
2024/04/11 03:43:22;;;;;;;14.90;9.20;;;;;;;7.12;66.47;100664.46;103135;1293;545386;-78
2024/04/11 03:46:58;;;;;;;14.60;9.40;;;;;;;7.10;66.59;100659.44;103302;1293;545009;-78
2024/04/11 03:50:43;;;;;;;14.00;9.10;;;;;;;7.09;66.56;100661.36;103204;1293;544994;-78
2024/04/11 03:54:21;;;;;;;14.00;8.80;;;;;;;7.09;66.68;100667.48;103196;1295;545667;-79
2024/04/11 03:57:58;;;;;;;13.60;9.50;;;;;;;7.08;66.85;100661.73;103073;1295;544788;-80
2024/04/11 04:01:34;;;;;;;10.60;7.80;;;;;;;7.10;66.91;100666.95;103441;1292;544918;-79
2024/04/11 04:05:15;;;;;;;11.30;9.00;;;;;;;7.09;66.87;100672.73;103779;1290;545770;-80
2024/04/11 04:08:51;;;;;;;19.40;8.80;;;;;;;7.11;67.13;100680.92;104058;1296;544775;-81
2024/04/11 04:12:29;;;;;;;25.60;9.20;;;;;;;7.12;67.16;100686.34;104091;1298;544965;-82
2024/04/11 04:16:10;;;;;;;15.00;9.80;;;;;;;7.13;67.06;100686.50;103406;1295;545904;-79
2024/04/11 04:19:42;;;;;;;15.70;8.90;;;;;;;7.12;67.21;100688.44;103400;1291;545279;-79
2024/04/11 04:23:21;;;;;;;15.20;9.70;;;;;;;7.12;67.27;100691.75;103226;1295;544972;-79
2024/04/11 04:27:02;;;;;;;15.30;9.80;;;;;;;7.11;67.25;100694.58;103476;1295;545157;-77
2024/04/11 04:30:35;;;;;;;14.30;9.20;;;;;;;7.12;67.28;100694.04;103292;1296;544892;-75
2024/04/11 04:34:15;;;;;;;18.70;9.90;;;;;;;7.14;67.54;100694.52;103387;1295;545643;-72
2024/04/11 04:37:51;;;;;;;14.60;9.40;;;;;;;7.21;67.53;100702.48;103290;1292;545444;-73
2024/04/11 04:41:28;;;;;;;26.20;10.10;;;;;;;7.27;67.42;100705.21;103209;1301;545039;-73
2024/04/11 04:45:12;;;;;;;15.50;9.80;;;;;;;7.35;67.74;100707.35;103037;1295;545048;-75
2024/04/11 04:48:54;;;;;;;16.40;10.60;;;;;;;7.47;67.62;100709.27;103157;1299;545058;-79
2024/04/11 04:52:24;;;;;;;16.10;10.20;;;;;;;7.59;67.89;100709.79;103490;1294;545570;-79
2024/04/11 04:56:07;;;;;;;39.40;11.40;;;;;;;7.72;67.95;100712.05;103687;1295;544914;-81
2024/04/11 05:00:13;;;;;;;39.10;13.00;;;;;;;7.87;68.06;100716.17;103431;1291;549245;-74
2024/04/11 05:03:34;;;;;;;21.60;10.00;;;;;;;8.08;68.27;100719.32;103114;1295;545011;-78
2024/04/11 05:07:12;;;;;;;24.70;9.90;;;;;;;8.30;68.41;100719.83;103246;1295;545407;-76
2024/04/11 05:35:00;;;;;;;18.60;7.90;;;;;;;10.92;67.53;100720.77;105638;1289;554354;-80
2024/04/11 05:37:53;;;;;;;17.20;7.40;;;;;;;11.67;67.08;100725.63;104347;1293;544966;-81
2024/04/11 05:41:29;;;;;;;15.20;6.30;;;;;;;11.96;67.02;100732.42;103549;1294;544772;-80
2024/04/11 05:45:07;;;;;;;15.70;6.30;;;;;;;12.25;66.59;100728.08;103393;1295;545692;-80
2024/04/11 05:48:46;;;;;;;27.10;7.20;;;;;;;12.49;66.32;100731.69;103349;1292;544862;-80
2024/04/11 05:52:23;;;;;;;34.90;7.70;;;;;;;12.81;66.13;100732.11;103335;1292;545123;-77
2024/04/11 05:56:00;;;;;;;33.30;7.30;;;;;;;13.17;65.87;100734.84;103401;1294;545291;-80
2024/04/11 05:59:37;;;;;;;48.60;7.90;;;;;;;13.53;65.64;100731.48;103353;1300;545928;-80
2024/04/11 06:03:16;;;;;;;51.10;9.50;;;;;;;13.87;65.24;100727.11;103556;1295;545785;-80
2024/04/11 06:06:53;;;;;;;47.80;7.90;;;;;;;14.18;64.87;100729.71;104146;1288;545559;-82
2024/04/11 06:10:31;;;;;;;32.50;6.70;;;;;;;14.54;64.53;100737.05;103546;1295;545440;-79
2024/04/11 06:14:09;;;;;;;46.90;8.20;;;;;;;14.90;64.23;100734.21;103180;1292;545006;-78
2024/04/11 06:17:47;;;;;;;52.30;9.20;;;;;;;15.17;63.76;100736.64;103377;1293;544818;-81
2024/04/11 06:21:32;;;;;;;27.10;7.90;;;;;;;15.48;63.25;100742.33;103954;1295;545525;-78
2024/04/11 06:25:01;;;;;;;29.10;7.60;;;;;;;15.75;62.96;100736.93;103978;1290;545885;-80
2024/04/11 06:28:39;;;;;;;36.80;7.30;;;;;;;15.99;62.59;100734.33;103396;1293;545438;-79
2024/04/11 06:32:17;;;;;;;39.20;8.20;;;;;;;16.03;61.92;100735.55;103129;1308;545647;-79
2024/04/11 06:35:55;;;;;;;31.40;10.30;;;;;;;16.13;63.27;100730.24;103373;1298;545659;-79
2024/04/11 06:39:34;;;;;;;29.30;12.60;;;;;;;16.46;62.14;100735.21;103321;1292;545023;-78
2024/04/11 06:43:13;;;;;;;36.00;13.90;;;;;;;16.80;61.87;100731.61;103256;1296;545050;-84
2024/04/11 06:46:49;;;;;;;22.30;8.60;;;;;;;17.02;61.46;100733.27;103920;1289;545702;-82
2024/04/11 06:50:25;;;;;;;22.40;8.10;;;;;;;17.15;61.12;100731.86;103511;1295;544713;-80
2024/04/11 06:54:04;;;;;;;24.10;7.10;;;;;;;17.36;60.74;100735.16;103140;1299;545466;-79
2024/04/11 06:57:45;;;;;;;16.90;6.30;;;;;;;17.56;60.42;100742.06;103850;1294;544783;-83
2024/04/11 07:01:17;;;;;;;11.10;4.90;;;;;;;17.71;60.03;100735.87;104640;1299;544700;-83
2024/04/11 07:05:07;;;;;;;8.20;3.80;;;;;;;17.78;59.68;100738.66;104703;1293;545472;-78
2024/04/11 07:08:43;;;;;;;13.20;4.00;;;;;;;17.93;59.22;100737.29;103339;1295;544927;-79
2024/04/11 07:12:28;;;;;;;6.80;3.30;;;;;;;17.93;58.52;100738.49;103808;1295;544787;-80
2024/04/11 07:15:58;;;;;;;11.50;3.50;;;;;;;17.87;58.51;100736.91;103692;1296;544625;-81
2024/04/11 07:19:34;;;;;;;6.20;3.50;;;;;;;17.96;58.20;100740.28;103794;1292;545873;-80
2024/04/11 07:23:10;;;;;;;5.10;2.30;;;;;;;17.96;57.61;100738.90;103387;1297;544891;-81
2024/04/11 07:26:53;;;;;;;13.70;3.00;;;;;;;17.91;57.57;100735.06;103599;1294;544869;-78
2024/04/11 07:30:29;;;;;;;4.80;2.40;;;;;;;17.84;57.47;100736.18;103436;1295;545894;-78
2024/04/11 07:34:09;;;;;;;6.50;2.40;;;;;;;17.81;57.28;100734.41;103397;1294;545396;-77
2024/04/11 07:37:49;;;;;;;5.40;2.20;;;;;;;17.81;56.95;100733.86;103126;1301;545395;-77
2024/04/11 07:41:44;;;;;;;6.70;1.90;;;;;;;17.70;56.45;100730.95;103399;1298;544847;-78
2024/04/11 07:45:30;;;;;;;6.90;1.70;;;;;;;17.63;56.29;100728.67;103333;1295;544981;-77
2024/04/11 07:49:10;;;;;;;3.50;1.60;;;;;;;17.61;57.04;100727.20;103696;1294;545502;-76
2024/04/11 07:52:50;;;;;;;6.90;2.00;;;;;;;17.65;56.07;100732.09;103129;1300;545580;-78
2024/04/11 07:56:34;;;;;;;4.80;2.30;;;;;;;17.62;56.35;100734.56;103633;1289;545645;-78
2024/04/11 08:00:20;;;;;;;3.80;1.80;;;;;;;18.03;58.09;100731.52;103029;1293;544861;-78
2024/04/11 08:03:45;;;;;;;4.10;1.30;;;;;;;18.01;55.91;100724.19;103142;1306;545098;-77
2024/04/11 08:07:28;;;;;;;10.10;2.90;;;;;;;17.91;55.47;100724.58;103282;1292;545546;-78
2024/04/11 08:11:06;;;;;;;5.90;1.10;;;;;;;18.11;55.87;100723.20;103281;1298;545508;-77
2024/04/11 08:14:48;;;;;;;4.30;1.40;;;;;;;18.11;54.86;100725.83;104089;1296;545439;-78
2024/04/11 08:18:33;;;;;;;2.80;1.00;;;;;;;18.14;55.45;100721.04;103659;1300;548005;-78
2024/04/11 08:22:04;;;;;;;2.10;1.10;;;;;;;18.11;54.55;100724.25;103609;1294;545662;-78
2024/04/11 08:25:39;;;;;;;2.40;1.40;;;;;;;18.07;54.27;100724.33;103508;1295;545608;-78
2024/04/11 08:29:23;;;;;;;6.60;1.40;;;;;;;18.11;53.95;100728.50;103540;1294;545156;-77
2024/04/11 08:33:09;;;;;;;6.20;1.30;;;;;;;18.12;53.69;100727.77;104089;1286;546505;-78
2024/04/11 08:36:43;;;;;;;4.80;1.30;;;;;;;18.09;53.51;100725.27;103141;1296;545087;-77
2024/04/11 08:40:24;;;;;;;2.40;1.10;;;;;;;18.16;53.03;100730.35;103162;1293;546312;-76
2024/04/11 08:44:06;;;;;;;2.20;1.10;;;;;;;18.21;53.20;100729.52;103029;1295;545196;-78
2024/04/11 08:47:41;;;;;;;7.40;2.10;;;;;;;18.17;52.51;100724.77;103205;1299;545581;-78
2024/04/11 08:51:23;;;;;;;6.10;1.60;;;;;;;18.16;52.77;100724.30;103039;1299;544731;-77
2024/04/11 08:54:58;;;;;;;3.70;1.10;;;;;;;18.36;54.09;100724.40;103677;1285;544958;-78
2024/04/11 08:58:43;;;;;;;4.40;1.90;;;;;;;18.74;54.84;100724.42;103387;1295;545399;-77
2024/04/11 09:02:18;;;;;;;4.10;1.40;;;;;;;19.17;52.75;100726.57;103078;1296;545232;-77
2024/04/11 09:05:57;;;;;;;4.80;1.30;;;;;;;19.19;53.77;100723.39;103109;1295;545416;-80
2024/04/11 09:09:31;;;;;;;3.20;1.40;;;;;;;19.51;53.00;100719.24;103529;1289;544732;-78
2024/04/11 09:13:25;;;;;;;1.60;1.00;;;;;;;19.43;52.01;100717.61;103760;1299;549222;-78
2024/04/11 09:17:04;;;;;;;4.70;1.40;;;;;;;19.21;51.83;100718.98;103591;1292;544958;-78
2024/04/11 09:20:45;;;;;;;4.00;1.20;;;;;;;19.09;51.39;100714.77;103230;1292;544786;-79
2024/04/11 09:24:32;;;;;;;6.20;1.40;;;;;;;19.05;51.13;100715.88;103188;1298;545416;-77
2024/04/11 09:28:14;;;;;;;1.50;1.10;;;;;;;19.07;51.23;100719.15;103014;1295;544669;-78
2024/04/11 09:31:53;;;;;;;2.60;1.20;;;;;;;19.14;50.86;100719.24;103060;1294;545149;-78
2024/04/11 09:35:46;;;;;;;3.70;1.40;;;;;;;19.20;50.43;100716.02;103050;1299;544783;-77
2024/04/11 09:39:45;;;;;;;8.80;1.40;;;;;;;19.35;50.77;100715.25;103160;1292;545274;-78
2024/04/11 09:43:05;;;;;;;5.40;1.30;;;;;;;19.50;50.27;100710.52;103356;1293;544814;-79
2024/04/11 09:46:48;;;;;;;2.70;1.00;;;;;;;19.68;49.90;100704.00;102993;1302;545483;-77
2024/04/11 09:50:27;;;;;;;5.20;1.30;;;;;;;19.76;49.49;100702.92;103219;1292;544788;-77
2024/04/11 09:54:13;;;;;;;15.00;2.40;;;;;;;19.75;49.13;100704.64;103129;1295;545009;-77
2024/04/11 09:57:58;;;;;;;4.70;1.30;;;;;;;19.80;49.38;100698.38;103631;1296;545030;-77
2024/04/11 10:01:37;;;;;;;7.90;1.60;;;;;;;19.84;49.50;100693.44;103246;1298;545025;-79
2024/04/11 10:05:09;;;;;;;4.70;1.20;;;;;;;19.97;48.85;100690.27;103265;1298;545003;-77
2024/04/11 10:08:50;;;;;;;7.40;1.50;;;;;;;19.82;48.01;100697.02;103009;1299;546081;-78
2024/04/11 10:12:38;;;;;;;6.60;1.50;;;;;;;19.78;48.15;100694.58;103141;1295;545649;-78
2024/04/11 10:16:21;;;;;;;2.20;0.90;;;;;;;20.00;48.66;100687.98;103230;1296;545187;-77
2024/04/11 10:19:47;;;;;;;4.00;1.10;;;;;;;20.13;47.99;100687.60;103151;1295;545241;-76
2024/04/11 10:23:25;;;;;;;2.20;1.40;;;;;;;20.09;48.12;100681.64;103105;1296;545204;-78
2024/04/11 10:27:29;;;;;;;3.10;1.00;;;;;;;19.78;46.96;100682.04;103350;1292;544948;-81
2024/04/11 10:31:11;;;;;;;4.70;1.20;;;;;;;19.73;47.46;100682.89;104602;1295;545050;-81
2024/04/11 10:34:57;;;;;;;2.30;0.90;;;;;;;19.97;47.16;100678.48;104043;1295;545161;-82
2024/04/11 10:38:38;;;;;;;3.30;1.10;;;;;;;20.20;46.97;100673.57;104441;1295;544759;-83
2024/04/11 10:46:08;;;;;;;5.20;1.50;;;;;;;20.52;46.53;100677.45;103999;1294;547901;-83
2024/04/11 10:49:45;;;;;;;4.00;1.20;;;;;;;20.52;45.76;100673.60;104571;1295;545021;-82
2024/04/11 10:53:20;;;;;;;7.30;1.30;;;;;;;20.48;46.13;100671.27;104782;1292;545340;-82
2024/04/11 10:56:54;;;;;;;4.80;1.40;;;;;;;20.59;46.20;100671.05;103572;1292;545603;-76
2024/04/11 11:00:52;;;;;;;3.30;1.40;;;;;;;20.60;45.86;100666.89;104163;1298;545955;-78
2024/04/11 11:04:06;;;;;;;2.20;1.00;;;;;;;20.66;45.27;100661.20;104213;1293;544978;-76
2024/04/11 11:07:48;;;;;;;5.90;1.30;;;;;;;20.55;44.55;100657.33;103700;1294;544850;-75
2024/04/11 11:11:30;;;;;;;2.80;0.80;;;;;;;20.36;44.91;100654.77;103457;1293;546412;-76
2024/04/11 11:15:14;;;;;;;14.80;1.40;;;;;;;20.40;44.72;100652.89;103220;1298;546518;-77
2024/04/11 11:18:53;;;;;;;3.10;1.10;;;;;;;20.21;45.20;100647.02;103165;1295;545050;-77
2024/04/11 11:22:33;;;;;;;9.10;1.90;;;;;;;19.95;44.38;100655.01;103078;1299;545706;-77
2024/04/11 11:26:06;;;;;;;4.70;1.40;;;;;;;19.33;43.86;100666.67;103068;1295;544838;-77
2024/04/11 11:29:48;;;;;;;2.10;0.90;;;;;;;19.00;44.27;100655.92;103271;1295;545108;-79
2024/04/11 11:33:31;;;;;;;4.40;1.50;;;;;;;19.10;44.48;100655.45;103176;1299;544952;-77
2024/04/11 11:37:12;;;;;;;4.60;1.40;;;;;;;19.43;44.40;100654.77;103120;1292;545551;-77
2024/04/11 11:40:54;;;;;;;6.20;1.80;;;;;;;19.65;44.13;100640.42;102926;1295;545069;-77
2024/04/11 11:44:28;;;;;;;10.10;2.20;;;;;;;19.77;43.64;100637.31;103183;1293;545013;-76
2024/04/11 11:48:12;;;;;;;6.90;1.40;;;;;;;19.66;44.10;100631.73;103086;1296;545789;-76
2024/04/11 11:51:38;;;;;;;2.40;1.00;;;;;;;19.82;43.83;100633.75;103300;1293;544995;-77
2024/04/11 11:55:25;;;;;;;4.20;1.10;;;;;;;20.03;43.34;100625.04;103077;1292;545550;-78
2024/04/11 11:59:02;;;;;;;7.20;1.40;;;;;;;20.15;43.22;100618.89;103292;1295;545080;-75
2024/04/11 12:02:33;;;;;;;8.00;1.50;;;;;;;20.19;43.17;100621.61;103127;1295;545081;-77
2024/04/11 12:06:15;;;;;;;4.80;1.20;;;;;;;20.19;42.33;100614.98;103192;1298;545960;-76
2024/04/11 12:10:12;;;;;;;4.00;1.30;;;;;;;19.70;42.54;100614.95;103009;1292;545818;-76
2024/04/11 12:23:57;;;;;;;27.30;3.00;;;;;;;20.33;42.71;100596.23;104316;1289;554211;-79
2024/04/11 12:37:15;;;;;;;2.80;1.30;;;;;;;21.00;42.43;100583.64;104259;1286;555933;-81
2024/04/11 12:40:06;;;;;;;2.50;1.10;;;;;;;21.21;42.07;100578.16;103530;1298;545531;-80
2024/04/11 12:43:57;;;;;;;2.40;1.10;;;;;;;20.94;41.00;100586.21;103622;1298;549140;-80
2024/04/11 12:47:39;;;;;;;4.40;1.60;;;;;;;20.27;41.24;100581.00;103438;1296;545017;-79
2024/04/11 12:51:04;;;;;;;3.70;1.20;;;;;;;20.11;41.33;100582.67;103473;1295;545319;-77
2024/04/11 12:54:47;;;;;;;2.40;1.30;;;;;;;19.84;41.07;100583.06;103322;1298;544793;-78
2024/04/11 12:58:53;;;;;;;4.10;1.30;;;;;;;19.68;41.36;100584.19;103502;1296;553197;-79
2024/04/11 13:02:08;;;;;;;3.90;1.40;;;;;;;19.71;41.02;100584.48;103311;1295;549183;-78
2024/04/11 13:19:43;;;;;;;4.10;1.40;;;;;;;20.16;40.44;100564.10;104527;1298;554516;-79
2024/04/11 13:22:41;;;;;;;6.60;1.60;;;;;;;20.44;40.82;100562.47;103327;1308;544947;-80
2024/04/11 13:26:16;;;;;;;3.40;1.40;;;;;;;20.35;40.51;100559.34;103176;1294;545056;-80
2024/04/11 13:29:48;;;;;;;3.40;1.30;;;;;;;20.00;40.18;100559.69;103220;1301;544934;-78
2024/04/11 13:33:32;;;;;;;3.10;1.70;;;;;;;19.73;40.11;100558.11;103509;1296;544863;-78
2024/04/11 13:37:37;;;;;;;3.60;2.10;;;;;;;19.73;40.45;100558.63;103204;1294;560574;-83
2024/04/11 13:44:32;;;;;;;4.30;2.00;;;;;;;19.83;40.63;100548.67;105121;1286;545951;-80
2024/04/11 13:48:01;;;;;;;2.90;1.50;;;;;;;19.75;40.60;100544.23;103381;1298;545302;-81
2024/04/11 13:51:52;;;;;;;4.80;1.40;;;;;;;19.94;40.63;100534.73;104531;1292;544986;-83
2024/04/11 13:55:18;;;;;;;4.70;1.30;;;;;;;20.14;40.36;100531.77;103818;1295;545524;-83
2024/04/11 13:58:58;;;;;;;2.60;1.30;;;;;;;20.35;40.47;100527.23;104031;1299;545006;-81
2024/04/11 14:02:58;;;;;;;2.70;1.70;;;;;;;20.05;39.78;100530.77;104383;1292;544847;-81
2024/04/11 14:09:47;;;;;;;3.30;1.50;;;;;;;19.83;40.39;100517.84;104040;1295;545010;-83
2024/04/11 14:13:26;;;;;;;6.20;1.50;;;;;;;20.13;40.63;100516.11;104032;1295;546176;-83
2024/04/11 14:17:06;;;;;;;5.40;1.40;;;;;;;20.26;40.21;100517.29;104116;1293;545097;-81
2024/04/11 14:20:44;;;;;;;5.00;1.40;;;;;;;20.34;39.97;100522.45;104252;1295;545502;-83
2024/04/11 14:24:35;;;;;;;5.20;1.30;;;;;;;20.10;39.31;100522.36;103896;1295;545066;-79
2024/04/11 14:28:15;;;;;;;13.30;1.60;;;;;;;19.75;39.35;100521.21;103605;1292;545053;-78
2024/04/11 14:31:40;;;;;;;11.30;1.80;;;;;;;19.57;39.82;100519.93;103517;1292;545487;-76
2024/04/11 14:39:05;;;;;;;6.80;1.20;;;;;;;19.93;39.78;100513.00;103360;1296;545002;-77
2024/04/11 14:42:47;;;;;;;5.90;1.30;;;;;;;20.08;40.22;100506.95;103559;1304;546001;-77
2024/04/11 14:46:24;;;;;;;3.60;1.60;;;;;;;20.36;39.86;100502.15;103247;1295;545402;-78
2024/04/11 14:50:04;;;;;;;7.80;1.60;;;;;;;20.27;39.08;100502.08;103245;1293;545022;-77
2024/04/11 14:53:49;;;;;;;4.60;1.80;;;;;;;20.17;39.95;100497.93;103336;1296;546252;-77
2024/04/11 14:57:26;;;;;;;2.10;1.40;;;;;;;20.13;39.21;100500.57;103692;1291;545166;-83
2024/04/11 15:01:14;;;;;;;4.50;1.40;;;;;;;19.88;39.17;100503.00;103783;1295;544800;-80
2024/04/11 15:05:10;;;;;;;6.20;1.60;;;;;;;19.78;39.41;100500.32;104040;1295;545490;-78
2024/04/11 15:08:35;;;;;;;4.90;1.20;;;;;;;19.80;40.06;100499.98;104594;1298;544798;-79
2024/04/11 15:12:14;;;;;;;3.70;1.50;;;;;;;19.91;39.67;100495.13;104521;1294;544925;-77
2024/04/11 15:19:27;;;;;;;7.20;1.90;;;;;;;20.26;39.78;100492.11;103504;1293;545657;-81
2024/04/11 15:33:30;;;;;;;5.00;1.60;;;;;;;20.36;39.83;100489.44;105759;1302;554288;-91
2024/04/11 15:36:34;;;;;;;4.10;2.10;;;;;;;20.25;39.62;100492.88;104429;1296;545336;-84
2024/04/11 15:40:00;;;;;;;7.90;1.80;;;;;;;20.03;39.21;100485.88;104529;1293;544821;-88
2024/04/11 15:43:36;;;;;;;8.50;2.00;;;;;;;19.70;39.29;100483.34;105104;1292;545063;-82
2024/04/11 15:47:26;;;;;;;9.00;2.80;;;;;;;19.49;39.41;100483.07;104756;1295;545131;-80
2024/04/11 15:51:19;;;;;;;7.40;3.10;;;;;;;19.30;39.62;100479.73;104290;1292;551685;-84
2024/04/11 15:54:55;;;;;;;9.30;3.10;;;;;;;19.28;39.66;100477.89;104584;1288;545606;-90
2024/04/11 15:58:52;;;;;;;5.40;2.80;;;;;;;19.19;39.82;100474.92;104212;1292;545990;-77
2024/04/11 16:02:18;;;;;;;3.50;1.80;;;;;;;19.21;39.62;100476.20;103528;1296;545287;-80
2024/04/11 16:06:01;;;;;;;3.00;1.80;;;;;;;19.06;39.63;100478.42;103807;1291;545025;-78
2024/04/11 16:09:36;;;;;;;3.80;1.50;;;;;;;19.05;39.95;100480.28;103624;1292;544771;-78
2024/04/11 16:13:15;;;;;;;3.90;1.90;;;;;;;18.93;39.72;100476.27;103595;1294;544952;-79
2024/04/11 16:16:53;;;;;;;5.30;1.80;;;;;;;18.81;39.89;100475.10;103343;1308;545054;-79
2024/04/11 16:31:11;;;;;;;4.20;1.90;;;;;;;19.03;40.06;100481.33;104290;1288;554569;-78
2024/04/11 16:33:57;;;;;;;4.60;1.70;;;;;;;18.95;39.83;100481.46;103537;1299;545050;-78
2024/04/11 16:37:34;;;;;;;4.90;1.80;;;;;;;18.70;39.93;100484.73;103437;1296;544719;-79
2024/04/11 16:41:37;;;;;;;15.40;2.80;;;;;;;18.59;40.01;100483.13;103736;1292;545092;-79
2024/04/11 16:48:44;;;;;;;4.80;1.80;;;;;;;18.42;39.97;100479.96;103558;1296;545617;-77
2024/04/11 16:52:25;;;;;;;5.20;2.00;;;;;;;18.38;40.37;100483.05;103631;1295;549867;-77
2024/04/11 16:56:11;;;;;;;4.50;1.80;;;;;;;18.23;39.77;100485.24;103414;1292;545040;-77
2024/04/11 16:59:41;;;;;;;4.20;1.60;;;;;;;18.10;40.10;100480.73;104466;1292;545510;-85
2024/04/11 17:03:15;;;;;;;3.60;1.90;;;;;;;18.02;40.11;100484.92;105251;1286;544819;-89
2024/04/11 17:06:52;;;;;;;7.10;2.40;;;;;;;17.90;40.53;100490.20;104806;1295;545619;-87
2024/04/11 17:10:33;;;;;;;4.80;2.90;;;;;;;17.83;40.30;100493.95;104756;1296;545975;-87
2024/04/11 17:14:28;;;;;;;3.90;2.60;;;;;;;17.60;40.67;100491.09;104126;1298;546256;-79
2024/04/11 17:21:29;;;;;;;3.70;1.90;;;;;;;17.34;40.78;100501.18;103404;1294;545258;-77
2024/04/11 17:25:04;;;;;;;6.50;2.10;;;;;;;17.16;40.82;100503.49;103518;1294;545018;-77
2024/04/11 17:28:49;;;;;;;4.40;2.40;;;;;;;17.02;40.96;100513.38;103521;1292;546506;-78
2024/04/11 17:32:23;;;;;;;7.50;2.20;;;;;;;16.85;41.09;100518.76;103490;1295;545565;-77
2024/04/11 17:35:57;;;;;;;9.80;2.80;;;;;;;16.67;41.07;100521.25;103462;1292;545068;-77
2024/04/11 17:39:49;;;;;;;6.30;2.90;;;;;;;16.55;41.43;100524.73;103207;1308;549210;-77
2024/04/11 17:43:27;;;;;;;12.50;2.70;;;;;;;16.42;41.45;100527.08;103623;1294;545284;-77
2024/04/11 17:47:32;;;;;;;5.90;1.80;;;;;;;16.33;41.95;100525.44;103394;1299;552375;-77
2024/04/11 17:50:45;;;;;;;6.70;2.40;;;;;;;16.28;42.03;100529.96;103316;1306;545008;-75
2024/04/11 17:54:34;;;;;;;6.30;3.20;;;;;;;16.16;41.78;100538.35;103613;1302;544978;-75
2024/04/11 17:58:10;;;;;;;8.60;2.90;;;;;;;16.02;41.80;100546.59;103856;1293;545040;-78
2024/04/11 18:01:43;;;;;;;5.00;2.50;;;;;;;15.91;41.92;100548.77;104010;1301;545541;-78
2024/04/11 18:05:23;;;;;;;6.90;4.10;;;;;;;15.79;42.01;100555.75;103332;1292;545590;-81
2024/04/11 18:08:57;;;;;;;8.50;4.30;;;;;;;15.70;42.08;100556.27;103384;1294;545527;-81
2024/04/11 18:12:36;;;;;;;5.60;3.60;;;;;;;15.61;42.08;100557.41;103394;1296;545027;-80
2024/04/11 18:16:13;;;;;;;8.90;4.30;;;;;;;15.54;42.04;100564.71;103443;1296;545295;-77